Time;durP1;ratioP1;P1;durP2;ratioP2;P2;SDS_P1;SDS_P2;PMS_P1;PMS_P2;Temp;Humidity;BMP_temperature;BMP_pressure;BME280_temperature;BME280_humidity;BME280_pressure;Samples;Min_cycle;Max_cycle;Signal;HPM_P1;HPM_P2
2021/05/27 00:00:30;;;;;;;22.48;12.85;;;;;;;17.92;71.49;100795.59;1783830;78;21019;-69
2021/05/27 00:02:58;;;;;;;25.90;12.53;;;;;;;17.89;71.68;100800.58;1780002;79;21093;-68
2021/05/27 00:05:24;;;;;;;23.77;14.83;;;;;;;17.84;71.84;100801.73;1779882;80;21507;-69
2021/05/27 00:07:51;;;;;;;24.72;13.70;;;;;;;17.76;72.09;100796.09;1779689;80;21845;-69
2021/05/27 00:10:21;;;;;;;22.45;14.65;;;;;;;17.75;72.22;100796.61;1779222;80;21591;-69
2021/05/27 00:12:47;;;;;;;21.27;13.13;;;;;;;17.84;72.10;100793.16;1779835;80;21030;-69
2021/05/27 00:15:15;;;;;;;23.65;14.85;;;;;;;17.91;71.83;100799.31;1807576;79;21492;-69
2021/05/27 00:17:41;;;;;;;20.35;13.15;;;;;;;17.95;71.49;100792.45;1770082;79;21483;-69
2021/05/27 00:20:09;;;;;;;20.30;12.18;;;;;;;17.96;71.19;100792.77;1812220;79;21034;-69
2021/05/27 00:22:37;;;;;;;20.50;11.43;;;;;;;17.93;71.12;100795.07;1812879;79;21240;-69
2021/05/27 00:25:07;;;;;;;19.80;12.10;;;;;;;17.84;71.27;100790.98;1817421;79;20947;-68
2021/05/27 00:27:33;;;;;;;21.27;12.25;;;;;;;17.70;71.44;100788.39;1810922;79;21062;-69
2021/05/27 00:30:03;;;;;;;21.77;12.58;;;;;;;17.56;71.77;100789.44;1814210;78;21035;-69
2021/05/27 00:32:30;;;;;;;21.20;11.45;;;;;;;17.44;72.05;100791.70;1810569;79;21854;-68
2021/05/27 00:34:57;;;;;;;23.62;12.25;;;;;;;17.33;72.36;100791.30;1718796;82;21130;-68
2021/05/27 00:37:23;;;;;;;20.62;12.10;;;;;;;17.24;72.57;100788.58;1748633;82;20987;-68
2021/05/27 00:39:51;;;;;;;22.65;13.00;;;;;;;17.13;72.91;100791.09;1813981;79;20911;-68
2021/05/27 00:42:17;;;;;;;21.90;11.45;;;;;;;17.02;73.23;100795.78;1816924;78;21023;-68
2021/05/27 00:44:44;;;;;;;18.07;12.03;;;;;;;16.95;73.55;100799.83;1817040;79;21044;-68
2021/05/27 00:47:12;;;;;;;18.52;11.70;;;;;;;16.89;73.77;100799.31;1762592;79;20943;-68
2021/05/27 00:49:41;;;;;;;20.95;11.57;;;;;;;16.85;73.98;100804.28;1766054;78;21425;-68
2021/05/27 00:52:07;;;;;;;21.07;12.68;;;;;;;16.80;74.11;100805.45;1770384;79;21499;-68
2021/05/27 00:54:34;;;;;;;25.60;12.33;;;;;;;16.77;74.24;100801.81;1782231;80;20950;-68
2021/05/27 00:57:00;;;;;;;23.42;12.68;;;;;;;16.82;74.24;100805.22;1782065;80;21483;-68
2021/05/27 00:59:27;;;;;;;18.32;11.73;;;;;;;16.87;74.12;100807.28;1726861;80;21058;-69
2021/05/27 01:01:53;;;;;;;18.77;11.83;;;;;;;16.92;73.97;100802.11;1782302;80;20982;-70
2021/05/27 01:04:21;;;;;;;18.73;11.15;;;;;;;16.96;73.81;100802.00;1759710;80;20969;-70
2021/05/27 01:06:47;;;;;;;15.32;10.95;;;;;;;16.97;73.68;100809.00;1751177;82;21561;-70
2021/05/27 01:09:15;;;;;;;13.58;9.93;;;;;;;16.96;73.63;100806.03;1752262;79;21077;-70
2021/05/27 01:11:43;;;;;;;14.85;10.08;;;;;;;16.97;73.56;100804.97;1722047;82;21010;-70
2021/05/27 01:17:05;;;;;;;13.30;7.83;;;;;;;17.15;72.80;100801.92;1759362;79;21141;-70
2021/05/27 01:19:32;;;;;;;11.28;8.03;;;;;;;17.23;72.10;100803.55;1817395;79;21052;-69
2021/05/27 01:21:58;;;;;;;12.10;7.40;;;;;;;17.23;71.70;100798.17;1817276;79;21081;-69
2021/05/27 01:24:25;;;;;;;11.93;7.30;;;;;;;17.23;71.36;100802.20;1817022;79;20994;-69
2021/05/27 01:26:51;;;;;;;10.98;7.78;;;;;;;17.22;71.10;100796.00;1817476;79;21085;-71
2021/05/27 01:29:18;;;;;;;16.97;7.65;;;;;;;17.14;71.33;100794.92;1817482;78;21045;-74
2021/05/27 01:31:45;;;;;;;12.93;7.78;;;;;;;17.03;71.49;100798.78;1810509;78;21062;-69
2021/05/27 01:34:13;;;;;;;14.85;8.13;;;;;;;16.91;71.72;100795.08;1761944;79;21058;-69
2021/05/27 01:36:45;;;;;;;13.05;6.78;;;;;;;16.84;71.91;100797.25;1751149;82;20963;-68
2021/05/27 01:39:12;;;;;;;11.28;6.95;;;;;;;16.87;71.86;100800.56;1751361;81;20899;-67
2021/05/27 01:41:38;;;;;;;12.65;6.42;;;;;;;16.82;71.76;100794.48;1797983;79;21042;-71
2021/05/27 01:44:06;;;;;;;11.30;6.42;;;;;;;16.75;71.84;100793.67;1744703;82;21042;-69
2021/05/27 01:46:33;;;;;;;8.53;6.33;;;;;;;16.65;72.02;100794.11;1814304;79;21053;-70
2021/05/27 01:49:01;;;;;;;10.28;6.12;;;;;;;16.60;72.17;100794.41;1748947;80;21033;-70
2021/05/27 01:51:29;;;;;;;8.50;5.30;;;;;;;16.57;72.18;100793.49;1751243;82;21033;-70
2021/05/27 01:53:56;;;;;;;7.42;5.83;;;;;;;16.51;72.28;100787.56;1751135;82;21074;-69
2021/05/27 01:56:22;;;;;;;9.08;6.00;;;;;;;16.45;72.56;100785.20;1751274;82;20956;-69
2021/05/27 01:58:49;;;;;;;11.35;5.45;;;;;;;16.39;72.83;100781.48;1722627;80;21085;-69
2021/05/27 02:01:16;;;;;;;7.50;5.35;;;;;;;16.34;73.02;100785.33;1751121;82;21058;-68
2021/05/27 02:03:42;;;;;;;14.38;5.78;;;;;;;16.28;73.13;100782.11;1751927;80;21002;-68
2021/05/27 02:06:13;;;;;;;10.20;5.30;;;;;;;16.24;73.30;100787.57;1751226;82;21458;-66
2021/05/27 02:09:07;;;;;;;9.43;5.95;;;;;;;16.20;73.52;100784.19;1807489;79;20899;-67
2021/05/27 02:11:14;;;;;;;9.55;5.60;;;;;;;16.16;73.67;100782.44;1810240;79;21099;-69
2021/05/27 02:13:42;;;;;;;12.53;6.17;;;;;;;16.11;73.89;100784.90;1813991;79;21463;-68
2021/05/27 02:16:09;;;;;;;13.93;5.40;;;;;;;16.08;74.17;100780.46;1744950;82;20991;-69
2021/05/27 02:18:36;;;;;;;8.88;5.62;;;;;;;16.05;74.32;100785.70;1794633;79;21062;-69
2021/05/27 02:21:04;;;;;;;9.50;5.65;;;;;;;16.05;74.42;100786.24;1817393;79;21030;-68
2021/05/27 02:23:30;;;;;;;9.65;5.97;;;;;;;16.04;74.42;100787.27;1815841;79;21591;-68
2021/05/27 02:25:58;;;;;;;8.20;5.08;;;;;;;16.03;74.45;100786.95;1806334;79;21068;-69
2021/05/27 02:28:26;;;;;;;14.15;6.00;;;;;;;16.05;74.61;100780.88;1753418;79;21453;-67
2021/05/27 02:30:54;;;;;;;12.90;6.58;;;;;;;16.07;74.63;100780.97;1749229;79;21031;-69
2021/05/27 02:33:20;;;;;;;14.40;7.00;;;;;;;16.07;74.64;100780.14;1762336;79;21526;-68
2021/05/27 02:35:47;;;;;;;16.67;7.35;;;;;;;16.07;74.73;100777.46;1811379;79;21632;-67
2021/05/27 02:38:13;;;;;;;18.75;6.90;;;;;;;16.10;74.85;100785.09;1785527;79;21145;-68
2021/05/27 02:40:42;;;;;;;14.70;6.78;;;;;;;16.12;74.95;100778.52;1747222;79;21102;-68
2021/05/27 02:43:10;;;;;;;12.00;7.60;;;;;;;16.20;75.04;100782.30;1743027;81;21206;-67
2021/05/27 02:45:36;;;;;;;19.27;9.68;;;;;;;16.26;75.03;100780.67;1754665;79;21102;-68
2021/05/27 02:48:03;;;;;;;27.05;11.50;;;;;;;16.31;74.96;100783.57;1803821;79;21077;-67
2021/05/27 02:50:31;;;;;;;20.65;10.72;;;;;;;16.35;74.81;100778.10;1766479;79;21691;-68
2021/05/27 02:52:58;;;;;;;17.55;9.48;;;;;;;16.39;74.83;100775.28;1765577;81;21630;-69
2021/05/27 02:55:27;;;;;;;15.13;8.85;;;;;;;16.43;74.71;100774.38;1767907;79;21106;-68
2021/05/27 02:57:53;;;;;;;20.32;9.53;;;;;;;16.46;74.52;100776.13;1803989;79;21110;-69
2021/05/27 03:00:22;;;;;;;17.85;10.38;;;;;;;16.50;74.31;100781.91;1805211;79;21054;-70
2021/05/27 03:02:56;;;;;;;;;;;;;;;16.54;74.10;100771.06;1806373;79;21094;-67
2021/05/27 03:05:23;;;;;;;14.80;8.48;;;;;;;16.57;73.90;100773.36;1785390;79;20225;-69
2021/05/27 03:07:49;;;;;;;26.00;10.60;;;;;;;16.61;73.86;100771.40;1805730;79;21050;-70
2021/05/27 03:10:19;;;;;;;26.00;11.95;;;;;;;16.65;73.75;100778.00;1805506;79;21028;-69
2021/05/27 03:12:48;;;;;;;19.80;13.25;;;;;;;16.69;73.71;100779.75;1736759;82;20979;-69
2021/05/27 03:15:15;;;;;;;18.37;8.75;;;;;;;16.75;73.62;100785.09;1799304;79;21042;-68
2021/05/27 03:17:43;;;;;;;27.30;19.85;;;;;;;16.82;73.54;100791.79;1744795;79;20976;-70
2021/05/27 03:20:11;;;;;;;16.60;10.10;;;;;;;16.87;73.40;100790.66;1776626;79;21047;-70
2021/05/27 03:22:38;;;;;;;22.48;10.30;;;;;;;16.93;73.34;100779.57;1770864;79;21581;-69
2021/05/27 03:25:08;;;;;;;17.07;8.43;;;;;;;16.98;73.23;100777.92;1772918;80;21738;-70
2021/05/27 03:27:35;;;;;;;16.50;8.50;;;;;;;17.03;72.96;100775.95;1751520;82;21107;-67
2021/05/27 03:30:07;;;;;;;13.93;7.78;;;;;;;17.06;72.76;100774.17;1754446;80;21573;-70
2021/05/27 03:32:34;;;;;;;15.78;8.85;;;;;;;17.10;72.65;100763.31;1757836;80;21030;-69
2021/05/27 03:35:01;;;;;;;22.70;10.58;;;;;;;17.14;72.44;100772.09;1776972;79;21071;-70
2021/05/27 03:37:30;;;;;;;16.37;9.05;;;;;;;17.18;72.40;100769.80;1745914;82;21103;-70
2021/05/27 03:40:13;;;;;;;18.00;7.55;;;;;;;17.24;72.57;100770.28;1733578;82;21030;-70
2021/05/27 03:42:46;;;;;;;13.43;9.65;;;;;;;17.27;72.37;100775.22;1746095;82;21055;-70
2021/05/27 03:45:25;;;;;;;26.05;10.72;;;;;;;17.28;72.07;100776.88;1746092;82;21094;-69
2021/05/27 03:47:53;;;;;;;20.97;10.40;;;;;;;17.29;72.08;100779.87;1740834;81;21108;-74
2021/05/27 03:50:23;;;;;;;17.82;10.20;;;;;;;17.32;71.93;100779.45;1716650;83;21155;-75
2021/05/27 03:52:52;;;;;;;19.40;10.10;;;;;;;17.37;71.81;100785.02;1745408;82;21040;-71
2021/05/27 03:55:20;;;;;;;17.30;10.45;;;;;;;17.42;71.83;100775.77;1745497;82;21048;-76
2021/05/27 03:57:47;;;;;;;20.08;10.32;;;;;;;17.49;71.81;100782.45;1745272;82;21056;-71
2021/05/27 04:03:08;;;;;;;20.05;9.88;;;;;;;17.60;71.51;100781.84;1685571;85;21161;-72
2021/05/27 04:08:23;;;;;;;16.15;11.03;;;;;;;17.78;71.14;100781.93;1745615;82;21022;-74
2021/05/27 04:10:49;;;;;;;21.85;13.65;;;;;;;17.86;70.71;100783.02;1745313;81;21112;-71
2021/05/27 04:13:17;;;;;;;22.82;13.68;;;;;;;17.94;70.22;100781.39;1745438;82;21072;-72
2021/05/27 04:15:44;;;;;;;25.80;13.08;;;;;;;18.04;69.80;100779.58;1745398;82;21059;-71
2021/05/27 04:18:17;;;;;;;22.13;11.65;;;;;;;18.18;69.46;100778.42;1745500;82;21004;-70
2021/05/27 04:20:51;;;;;;;27.00;15.65;;;;;;;18.33;69.15;100780.27;1728000;82;21044;-72
2021/05/27 04:23:33;;;;;;;33.95;20.12;;;;;;;18.48;68.77;100775.38;1724651;82;21094;-72
2021/05/27 04:26:11;;;;;;;34.73;20.08;;;;;;;18.62;68.46;100772.87;1703515;82;21022;-71
2021/05/27 04:28:39;;;;;;;35.30;18.67;;;;;;;18.79;67.93;100774.48;1746803;82;21087;-71
2021/05/27 04:31:13;;;;;;;31.62;20.90;;;;;;;18.95;67.34;100774.42;1751996;80;21018;-70
2021/05/27 04:33:42;;;;;;;43.20;26.33;;;;;;;19.07;66.76;100763.20;1748410;81;21405;-70
2021/05/27 04:36:11;;;;;;;51.37;33.10;;;;;;;19.13;66.59;100763.63;1750940;80;21050;-72
2021/05/27 04:38:38;;;;;;;55.73;33.73;;;;;;;19.18;66.35;100764.62;1750875;81;21103;-71
2021/05/27 04:41:05;;;;;;;55.65;30.43;;;;;;;19.20;66.11;100764.38;1751431;82;21482;-71
2021/05/27 04:43:34;;;;;;;39.67;23.73;;;;;;;19.22;65.90;100771.73;1732364;82;21006;-70
2021/05/27 04:46:00;;;;;;;34.78;21.10;;;;;;;19.21;65.95;100767.38;1759127;79;20958;-73
2021/05/27 04:48:27;;;;;;;43.55;21.40;;;;;;;19.18;66.03;100771.88;1752939;80;21117;-73
2021/05/27 04:50:54;;;;;;;35.13;15.50;;;;;;;19.17;66.16;100767.53;1744892;80;21022;-73
2021/05/27 04:53:21;;;;;;;18.98;11.60;;;;;;;19.16;65.89;100764.52;1751320;82;21095;-70
2021/05/27 04:55:48;;;;;;;23.45;13.80;;;;;;;19.15;65.52;100768.27;1755587;81;21081;-71
2021/05/27 04:58:15;;;;;;;20.23;10.10;;;;;;;19.12;65.43;100766.85;1754712;80;21074;-69
2021/05/27 05:00:44;;;;;;;16.87;11.55;;;;;;;19.12;65.45;100767.38;1732368;82;21587;-72
2021/05/27 05:03:11;;;;;;;18.95;11.30;;;;;;;19.10;65.25;100765.44;1732683;82;21547;-73
2021/05/27 05:05:40;;;;;;;13.88;9.48;;;;;;;19.11;65.10;100769.23;1751195;82;21093;-72
2021/05/27 05:08:08;;;;;;;20.15;8.73;;;;;;;19.11;65.19;100769.79;1751432;80;20947;-72
2021/05/27 05:10:36;;;;;;;15.28;8.95;;;;;;;19.13;65.31;100767.16;1748388;82;21023;-72
2021/05/27 05:13:04;;;;;;;17.32;10.80;;;;;;;19.16;65.32;100764.52;1747727;82;21015;-71
2021/05/27 05:15:38;;;;;;;22.58;10.25;;;;;;;19.17;65.34;100762.14;1714319;82;21526;-71
2021/05/27 05:18:09;;;;;;;26.93;11.50;;;;;;;19.19;65.48;100764.06;1746591;80;21080;-71
2021/05/27 05:20:42;;;;;;;20.85;8.90;;;;;;;19.23;65.35;100759.88;1752682;80;21457;-71
2021/05/27 05:23:11;;;;;;;18.23;8.83;;;;;;;19.27;65.48;100760.23;1759219;80;21034;-70
2021/05/27 05:25:40;;;;;;;26.42;11.05;;;;;;;19.30;65.61;100759.81;1750287;80;21125;-71
2021/05/27 05:28:06;;;;;;;22.35;13.00;;;;;;;19.36;65.67;100762.41;1686646;85;21176;-69
2021/05/27 05:30:33;;;;;;;20.60;15.40;;;;;;;19.42;65.65;100760.70;1688209;83;21069;-69
2021/05/27 05:32:59;;;;;;;25.55;16.80;;;;;;;19.46;65.65;100764.06;1791352;79;21047;-69
2021/05/27 05:35:26;;;;;;;30.57;19.48;;;;;;;19.50;65.54;100758.52;1790684;79;21047;-70
2021/05/27 05:37:53;;;;;;;22.82;14.00;;;;;;;19.54;65.44;100761.05;1770275;79;21531;-69
2021/05/27 05:40:23;;;;;;;14.15;10.63;;;;;;;19.55;65.78;100750.58;1763715;81;21117;-68
2021/05/27 05:42:51;;;;;;;30.02;19.45;;;;;;;19.62;65.91;100758.56;1761295;81;21123;-69
2021/05/27 05:45:18;;;;;;;12.88;9.70;;;;;;;19.67;65.78;100754.66;1699232;84;21057;-70
2021/05/27 05:47:46;;;;;;;31.12;10.20;;;;;;;19.70;65.60;100756.38;1763552;80;21027;-72
2021/05/27 05:50:14;;;;;;;37.78;16.62;;;;;;;19.75;65.76;100758.91;1762485;81;20992;-70
2021/05/27 05:52:40;;;;;;;20.30;15.40;;;;;;;19.78;65.76;100761.14;1767107;79;21027;-71
2021/05/27 05:55:09;;;;;;;20.10;14.78;;;;;;;19.80;65.45;100759.84;1759957;80;21090;-72
2021/05/27 05:57:35;;;;;;;15.53;9.85;;;;;;;19.84;65.46;100765.61;1730407;82;21062;-69
2021/05/27 06:00:05;;;;;;;21.97;7.70;;;;;;;19.88;65.59;100758.70;1772821;79;20996;-70
2021/05/27 06:02:33;;;;;;;15.25;7.87;;;;;;;19.95;65.88;100756.19;1769384;80;21015;-69
2021/05/27 06:05:00;;;;;;;22.27;10.60;;;;;;;20.04;65.92;100758.04;1756292;80;21013;-68
2021/05/27 06:07:32;;;;;;;26.45;9.98;;;;;;;20.08;66.08;100756.52;1723545;81;21073;-70
2021/05/27 06:09:59;;;;;;;20.72;9.95;;;;;;;20.12;65.95;100755.83;1721542;82;38876;-70
2021/05/27 06:12:26;;;;;;;18.05;8.98;;;;;;;20.17;65.90;100753.23;1743017;82;21061;-70
2021/05/27 06:14:52;;;;;;;21.60;9.40;;;;;;;20.23;65.81;100755.55;1758867;80;21169;-69
2021/05/27 06:17:19;;;;;;;16.12;9.08;;;;;;;20.30;65.98;100750.89;1784836;79;21074;-71
2021/05/27 06:19:46;;;;;;;21.48;9.50;;;;;;;20.38;65.87;100752.42;1779835;79;21074;-71
2021/05/27 06:22:17;;;;;;;26.12;16.95;;;;;;;20.43;65.62;100741.74;1808221;79;21630;-71
2021/05/27 06:24:45;;;;;;;56.70;39.45;;;;;;;20.47;65.54;100743.72;1736246;81;21060;-71
2021/05/27 06:27:12;;;;;;;55.43;33.42;;;;;;;20.52;65.23;100741.14;1717144;83;21031;-71
2021/05/27 06:29:38;;;;;;;20.00;16.45;;;;;;;20.57;65.09;100739.09;1715573;83;21058;-70
2021/05/27 06:32:06;;;;;;;23.45;17.10;;;;;;;20.64;65.05;100735.20;1717092;83;21620;-69
2021/05/27 06:34:32;;;;;;;23.70;15.10;;;;;;;20.72;65.00;100733.20;1696151;83;21180;-71
2021/05/27 06:37:00;;;;;;;22.93;13.13;;;;;;;20.77;64.77;100733.32;1717533;83;21045;-71
2021/05/27 06:39:28;;;;;;;22.40;14.98;;;;;;;20.82;64.58;100736.11;1715567;83;21551;-71
2021/05/27 06:41:56;;;;;;;26.48;20.92;;;;;;;20.88;64.47;100738.71;1701317;83;21591;-73
2021/05/27 06:44:23;;;;;;;29.92;18.57;;;;;;;20.93;64.22;100730.69;1707257;84;21054;-74
2021/05/27 06:46:50;;;;;;;26.15;16.67;;;;;;;20.99;64.22;100730.28;1709469;82;21091;-71
2021/05/27 06:49:16;;;;;;;21.12;13.60;;;;;;;21.05;63.76;100732.84;1749925;80;21086;-74
2021/05/27 06:51:45;;;;;;;16.00;10.68;;;;;;;21.10;63.93;100730.78;1753084;80;21143;-72
2021/05/27 06:54:12;;;;;;;20.40;11.15;;;;;;;21.16;64.07;100728.48;1748374;82;20919;-74
2021/05/27 06:56:38;;;;;;;36.20;13.60;;;;;;;21.21;63.95;100725.89;1745614;82;21166;-73
2021/05/27 06:59:05;;;;;;;23.38;12.65;;;;;;;21.27;63.74;100725.44;1749217;82;20975;-74
2021/05/27 07:01:31;;;;;;;38.42;15.40;;;;;;;21.30;63.79;100727.13;1751215;82;20998;-74
2021/05/27 07:03:58;;;;;;;13.53;10.18;;;;;;;21.35;63.69;100725.06;1751260;82;21034;-73
2021/05/27 07:06:25;;;;;;;23.12;10.88;;;;;;;21.42;64.08;100729.80;1750757;82;21076;-72
2021/05/27 07:08:51;;;;;;;23.77;11.97;;;;;;;21.49;63.70;100721.83;1746141;80;21774;-72
2021/05/27 07:11:18;;;;;;;20.40;11.68;;;;;;;21.57;63.82;100729.55;1744609;82;21094;-72
2021/05/27 07:13:45;;;;;;;13.68;10.20;;;;;;;21.63;63.63;100716.13;1740422;82;20919;-72
2021/05/27 07:16:14;;;;;;;20.97;11.43;;;;;;;21.67;63.24;100723.52;1749707;82;21056;-72
2021/05/27 07:18:42;;;;;;;19.23;9.95;;;;;;;21.72;63.42;100724.12;1751663;81;21449;-69
2021/05/27 07:21:09;;;;;;;26.50;19.17;;;;;;;21.75;63.62;100727.19;1751414;82;21067;-71
2021/05/27 07:23:35;;;;;;;22.05;16.00;;;;;;;21.80;63.53;100727.25;1751492;82;20984;-73
2021/05/27 07:26:04;;;;;;;15.90;11.88;;;;;;;21.86;63.29;100718.70;1767583;80;21024;-70
2021/05/27 07:28:32;;;;;;;15.15;9.10;;;;;;;21.90;63.22;100719.86;1779320;80;21512;-70
2021/05/27 07:31:00;;;;;;;16.27;10.50;;;;;;;21.95;63.28;100709.95;1738642;81;21465;-60
2021/05/27 07:33:27;;;;;;;25.48;12.73;;;;;;;22.04;63.37;100711.72;1724066;82;21665;-60
2021/05/27 07:35:53;;;;;;;16.73;9.65;;;;;;;22.18;63.81;100710.31;1753990;80;20998;-60
2021/05/27 07:38:20;;;;;;;17.00;10.05;;;;;;;22.34;63.79;100705.95;1721891;82;21041;-71
2021/05/27 07:40:46;;;;;;;20.82;11.05;;;;;;;22.44;63.23;100704.20;1765484;80;21075;-67
2021/05/27 07:43:14;;;;;;;22.98;10.82;;;;;;;22.54;63.16;100707.61;1786270;79;20923;-66
2021/05/27 07:45:40;;;;;;;26.48;10.08;;;;;;;22.63;62.26;100701.20;1712949;83;21074;-63
2021/05/27 07:48:08;;;;;;;65.62;12.63;;;;;;;22.68;62.17;100699.96;1712518;83;21058;-64
2021/05/27 07:50:35;;;;;;;19.48;9.93;;;;;;;22.75;62.38;100701.95;1704464;82;21008;-63
2021/05/27 07:53:01;;;;;;;10.85;7.55;;;;;;;22.86;62.27;100695.58;1707610;84;21035;-65
2021/05/27 07:55:28;;;;;;;19.40;9.00;;;;;;;22.97;61.47;100694.63;1704896;84;21079;-63
2021/05/27 07:57:54;;;;;;;18.48;8.75;;;;;;;23.01;61.09;100693.06;1696480;84;21917;-64
2021/05/27 08:00:21;;;;;;;13.85;8.70;;;;;;;23.10;60.99;100694.26;1696581;84;20984;-77
2021/05/27 08:02:48;;;;;;;11.83;7.08;;;;;;;23.19;60.64;100694.08;1774326;79;21062;-75
2021/05/27 08:05:16;;;;;;;11.12;6.53;;;;;;;23.30;59.83;100690.40;1756762;80;20991;-69
2021/05/27 08:07:43;;;;;;;17.00;8.88;;;;;;;23.40;59.14;100695.95;1743287;82;21627;-68
2021/05/27 08:10:13;;;;;;;14.85;8.58;;;;;;;23.52;58.92;100690.94;1732883;82;21027;-70
2021/05/27 08:12:42;;;;;;;16.82;7.97;;;;;;;23.65;58.53;100685.07;1745387;79;20902;-69
2021/05/27 08:15:10;;;;;;;23.10;7.20;;;;;;;23.79;57.95;100687.66;1743141;82;21495;-68
2021/05/27 08:17:37;;;;;;;10.05;6.15;;;;;;;23.90;57.55;100682.59;1743293;82;21118;-67
2021/05/27 08:20:07;;;;;;;12.93;5.83;;;;;;;24.05;57.19;100683.25;1743231;81;20957;-68
2021/05/27 08:22:33;;;;;;;23.35;6.22;;;;;;;24.16;56.59;100676.30;1787398;79;21067;-68
2021/05/27 08:25:02;;;;;;;10.00;6.17;;;;;;;24.34;56.03;100676.41;1811292;78;21085;-68
2021/05/27 08:27:30;;;;;;;18.32;8.08;;;;;;;24.53;55.07;100682.22;1803633;79;21027;-68
2021/05/27 08:29:57;;;;;;;14.00;6.37;;;;;;;24.68;54.78;100674.14;1790215;79;21029;-67
2021/05/27 08:32:23;;;;;;;8.60;4.72;;;;;;;24.87;53.62;100671.27;1771967;81;21488;-67
2021/05/27 08:34:50;;;;;;;8.20;5.00;;;;;;;25.02;52.58;100671.86;1771872;81;21816;-68
2021/05/27 08:37:17;;;;;;;8.35;4.87;;;;;;;25.15;52.07;100674.88;1771908;79;21106;-67
2021/05/27 08:39:43;;;;;;;9.88;4.35;;;;;;;25.34;51.38;100673.30;1777052;79;21082;-68
2021/05/27 08:42:10;;;;;;;14.03;5.67;;;;;;;25.52;50.38;100674.73;1803906;79;21555;-67
2021/05/27 08:44:36;;;;;;;15.08;5.45;;;;;;;25.64;50.00;100671.22;1804040;79;21114;-68
2021/05/27 08:47:03;;;;;;;11.88;7.35;;;;;;;25.79;49.47;100675.84;1803992;79;21061;-68
2021/05/27 08:49:31;;;;;;;12.63;7.35;;;;;;;25.88;49.95;100669.56;1803496;79;21551;-68
2021/05/27 08:52:01;;;;;;;10.85;6.58;;;;;;;25.97;51.05;100675.29;1741473;82;21558;-68
2021/05/27 08:54:30;;;;;;;15.85;7.60;;;;;;;26.08;50.94;100672.83;1741511;82;21033;-67
2021/05/27 08:56:59;;;;;;;20.43;10.05;;;;;;;26.19;50.40;100669.56;1741477;82;21058;-70
2021/05/27 08:59:25;;;;;;;17.23;9.40;;;;;;;26.20;50.50;100660.31;1707239;81;21649;-71
2021/05/27 09:02:05;;;;;;;11.25;7.25;;;;;;;26.20;50.87;100670.67;1758779;81;21078;-70
2021/05/27 09:04:33;;;;;;;11.90;6.33;;;;;;;26.15;50.89;100672.53;1759368;79;21078;-69
2021/05/27 09:07:00;;;;;;;15.83;9.28;;;;;;;26.06;51.35;100667.39;1784586;79;21058;-69
2021/05/27 09:09:57;;;;;;;32.55;15.08;;;;;;;26.02;50.56;100673.91;1772008;81;21589;-70
2021/05/27 09:12:32;;;;;;;14.35;7.00;;;;;;;26.07;50.83;100681.27;1642224;84;21662;-69
2021/05/27 09:15:03;;;;;;;18.57;9.40;;;;;;;26.09;50.33;100674.47;1739114;81;21002;-69
2021/05/27 09:17:48;;;;;;;15.55;7.58;;;;;;;26.04;50.17;100678.55;1766408;81;20927;-70
2021/05/27 09:20:20;;;;;;;22.93;8.68;;;;;;;25.99;49.71;100675.82;1771885;81;21002;-69
2021/05/27 09:22:50;;;;;;;25.85;9.28;;;;;;;26.01;50.60;100667.38;1793033;79;21106;-69
2021/05/27 09:25:27;;;;;;;19.40;8.55;;;;;;;26.16;50.88;100677.72;1762539;81;21075;-70
2021/05/27 09:27:54;;;;;;;31.97;8.73;;;;;;;26.42;50.07;100665.43;1774451;79;20966;-69
2021/05/27 09:30:22;;;;;;;15.20;6.80;;;;;;;26.60;49.76;100668.91;1735533;82;21025;-69
2021/05/27 09:32:50;;;;;;;20.10;8.48;;;;;;;26.69;48.37;100675.44;1717229;83;21095;-70
2021/05/27 09:35:20;;;;;;;14.87;8.43;;;;;;;26.62;48.84;100671.65;1717119;83;21064;-70
2021/05/27 09:37:52;;;;;;;21.75;13.43;;;;;;;26.63;49.25;100675.16;1721082;82;21704;-59
2021/05/27 09:40:43;;;;;;;18.67;9.40;;;;;;;26.73;49.35;100672.42;1707077;81;21010;-70
2021/05/27 09:43:12;;;;;;;13.93;6.78;;;;;;;26.90;49.25;100672.09;1714295;82;21072;-70
2021/05/27 09:45:40;;;;;;;19.05;7.15;;;;;;;27.01;48.51;100674.49;1715020;83;21179;-72
2021/05/27 09:48:24;;;;;;;19.40;6.90;;;;;;;26.91;47.89;100666.37;1697513;84;21047;-69
2021/05/27 09:50:55;;;;;;;20.32;8.83;;;;;;;26.74;47.95;100668.58;1721591;81;21151;-70
2021/05/27 09:53:25;;;;;;;23.85;9.90;;;;;;;26.61;49.14;100664.55;1723973;83;21559;-70
2021/05/27 09:55:55;;;;;;;19.77;9.75;;;;;;;26.56;49.85;100658.29;1726271;83;21559;-69
2021/05/27 09:58:22;;;;;;;35.35;12.00;;;;;;;26.65;49.53;100653.91;1715650;82;21031;-65
2021/05/27 10:00:49;;;;;;;32.40;9.28;;;;;;;26.83;49.37;100661.49;1708772;84;21039;-66
2021/05/27 10:03:33;;;;;;;33.33;16.90;;;;;;;27.08;48.92;100652.38;1708863;84;21054;-65
2021/05/27 10:06:05;;;;;;;24.30;9.95;;;;;;;27.31;47.86;100648.94;1708517;84;21027;-66
2021/05/27 10:08:55;;;;;;;18.20;6.85;;;;;;;27.47;46.52;100652.41;1708214;84;20983;-65
2021/05/27 10:11:25;;;;;;;18.40;6.22;;;;;;;27.44;46.01;100648.86;1708809;84;21039;-66
2021/05/27 10:13:52;;;;;;;19.65;9.45;;;;;;;27.28;45.97;100652.23;1708288;83;20975;-66
2021/05/27 10:16:20;;;;;;;13.18;7.90;;;;;;;27.21;46.37;100655.29;1708352;83;21091;-65
2021/05/27 10:18:48;;;;;;;19.62;7.37;;;;;;;27.08;46.01;100655.90;1708231;84;21572;-65
2021/05/27 10:21:14;;;;;;;12.60;6.08;;;;;;;27.11;46.00;100651.27;1708473;84;21377;-65
2021/05/27 10:23:41;;;;;;;17.60;7.08;;;;;;;27.26;46.13;100644.35;1708243;83;21003;-65
2021/05/27 10:26:07;;;;;;;16.75;4.80;;;;;;;27.57;45.43;100644.16;1707803;83;20971;-66
2021/05/27 10:28:34;;;;;;;15.35;6.00;;;;;;;27.84;44.89;100643.64;1705344;84;21079;-65
2021/05/27 10:31:01;;;;;;;9.18;4.28;;;;;;;28.11;44.47;100638.50;1705132;84;21555;-65
2021/05/27 10:33:38;;;;;;;16.52;7.50;;;;;;;28.33;44.41;100638.80;1705306;83;21592;-64
2021/05/27 10:36:07;;;;;;;11.68;5.72;;;;;;;28.50;44.40;100632.88;1703547;83;21043;-66
2021/05/27 10:38:43;;;;;;;19.27;7.65;;;;;;;28.54;43.42;100629.83;1705440;84;20980;-64
2021/05/27 10:41:24;;;;;;;19.55;6.45;;;;;;;28.45;43.53;100634.30;1705433;83;21102;-64
2021/05/27 10:44:07;;;;;;;18.57;9.53;;;;;;;28.34;42.46;100627.31;1701708;84;21077;-64
2021/05/27 10:46:47;;;;;;;27.95;12.23;;;;;;;28.59;42.97;100622.94;1705347;83;21219;-65
2021/05/27 10:49:45;;;;;;;27.45;10.18;;;;;;;29.99;41.40;100620.56;1705559;84;21015;-65
2021/05/27 10:52:34;;;;;;;21.45;8.60;;;;;;;31.39;38.01;100609.66;1705511;83;21012;-64
2021/05/27 10:55:07;;;;;;;15.38;5.60;;;;;;;32.59;35.33;100613.66;1705491;84;21077;-66
2021/05/27 10:57:43;;;;;;;16.85;7.65;;;;;;;33.46;33.59;100612.64;1705352;83;21477;-66
2021/05/27 11:00:37;;;;;;;15.43;6.97;;;;;;;34.11;32.25;100614.26;1701131;84;21051;-65
2021/05/27 11:03:47;;;;;;;15.70;9.65;;;;;;;34.07;31.80;100609.16;1705356;84;21079;-65
2021/05/27 11:06:29;;;;;;;16.93;6.75;;;;;;;33.28;32.05;100613.20;1649474;87;20967;-66
2021/05/27 11:09:16;;;;;;;16.05;9.63;;;;;;;32.21;32.63;100612.55;1641461;87;21827;-65
2021/05/27 11:11:56;;;;;;;13.75;7.58;;;;;;;31.23;33.56;100609.80;1683289;84;21523;-65
2021/05/27 11:14:35;;;;;;;25.77;9.80;;;;;;;30.33;34.97;100607.02;1697409;84;20975;-65
2021/05/27 11:17:11;;;;;;;28.23;9.18;;;;;;;29.65;36.39;100606.34;1697307;84;21021;-64
2021/05/27 11:20:04;;;;;;;11.60;7.12;;;;;;;29.13;37.90;100608.25;1697551;84;21098;-64
2021/05/27 11:22:36;;;;;;;18.15;8.18;;;;;;;28.92;38.18;100604.19;1697199;84;21123;-64
2021/05/27 11:25:15;;;;;;;25.62;7.22;;;;;;;28.90;38.53;100597.36;1697554;84;21041;-65
2021/05/27 11:28:13;;;;;;;27.40;6.95;;;;;;;28.83;38.75;100591.45;1694643;84;20991;-65
2021/05/27 11:30:44;;;;;;;17.10;7.60;;;;;;;28.68;38.88;100590.55;1710728;83;20987;-64
2021/05/27 11:33:28;;;;;;;16.55;7.12;;;;;;;28.43;39.54;100585.94;1690942;83;21059;-65